Providence, Pennsylvania
Current Conditions -  °F | °C
As of 7:31 AM on Tuesday 27 Jan 2015 (Local Time) from KLNS Reporting Station
Light Snow Light Snow  
Wind Chill: -10°   Ceiling: 4000
Heat Index: -4°   Visibility: 2mi
Dew Point: -7°   Wind: 10mph
Humidity: 81%   Direction: 340°NNW
Pressure: 29.75"   Gusts: NA
Location:  39.9111°N, 76.2285°W
Report Text: KLNS 271231Z 34009KT 2SM -SN OVC040 M04/M07 A2975 RMK AO2 P0000 T10391067
Loading
Personal Weather Stations






























Interactive Weather Map New forecast layout! Learn more

10-Day Weather Forecast

Advertisements
Track Severe Weather on mobile